Terminal Aerodrome Forecast
Issued by NWS

Home | Current Version | Previous Version | Text Only | Print | Product List | Glossary On
Versions: 1 2 3 4 5 6 7 8 9 10 11 12 13
000
FTUS46 KSTO 291100 RRA
TAFMHR
TAF
KMHR 291149Z 2912/3012 VRB03KT P6SM OVC020
      TEMPO 2913/2916 4SM BR
     FM291600 30005KT P6SM SKC
     FM300600 33012KT P6SM SCT150 BKN250=

USA.gov is the U.S. government's official web portal to all federal, state and local government web resources and services.